Weather at Greenville Downtown Airport

Public forecast

Using degrees Fahrenheit for public forecast. Weather courtesy of forecast.io.

Current aviation weather report (METAR) for Greenville Downtown Airport

Retrieved 2020/09/26 14:53 UTC (9 minutes ago):

KGMU 261453Z 06005KT 10SM OVC009 19/17 A3010 RMK AO2 SLP186 T01890167 51012

Aviation forecast (TAF) for Greenville Downtown Airport

Retrieved 2020/09/26 12:30 UTC (3 hours ago):

TAF KGMU 261127Z 2612/2712 03003KT P6SM SCT006 OVC014 TEMPO 2612/2613 BKN006 FM261600 08003KT P6SM BKN020 FM261900 14003KT P6SM SCT040 FM270800 VRB02KT 5SM BR BKN035